Breckenridge, Colorado
Current Conditions -  °F | °C
As of 11:57 PM on Wednesday 22 Oct 2014 (Local Time) from KCCU Reporting Station
Broken Clouds Broken Clouds  
Wind Chill: 26°   Ceiling: 3400
Heat Index: 34°   Visibility: 10mi
Dew Point: 23°   Wind: 9mph
Humidity: 65%   Direction: 250°WSW
Pressure: 30.46"   Gusts: NA
Location:  39.48°N, 106.04°W
Report Text: KCCU 230557Z AUTO 25008KT 10SM SCT027 BKN034 01/M05 A3046 RMK AO2
Loading
Personal Weather Stations






























Interactive Weather Map
Tropical Storm Tracking
New forecast layout! Learn more

10-Day Weather Forecast

Advertisements
Track Severe Weather on mobile